Glasco, KS

9:06 AM CDT on August 05, 2015 (GMT -0500)
1.5 miles East of Glasco | | Change Station
CLOSE
Current Station
Personal Weather Station
Location: Glasco, KS
Elevation: 1358 ft
Nearby Weather Stations

Elev 1358 ft 39.37 °N, 97.81 °W | Updated 1 second ago

Overcast
Overcast
72.5 °F
Feels Like 72.5 °F
N
3.6
Wind Variable Wind from WSW
Gusts 4.9 mph

Today
High -- | Low -- °F
--% Chance of Precip.
Yesterday
High -- | Low -- °F
Precip. -- in
6:34 AM 8:39 PM
Waning Gibbous, 67% visible
Pressure 29.93 in
Visibility 6.0 miles
Clouds Overcast 300 ft
Dew Point 70 °F
Humidity 92%
Rainfall 0.32 in
Snow Depth Not available.
UV 2.0 out of 12
Pollen .80 out of 12
Air Quality Not available.
Flu Activity Not available.
METAR KCNK 051355Z AUTO 12005KT 6SM BR OVC003 21/20 A2996 RMK AO2 RAE07 SLP134 P0000 T02060200

More Conditions Fewer Conditions

Pressure 29.93 in
Visibility 6.0 miles
Clouds Overcast 300 ft
Dew Point 70 °F
Humidity 92%
Rainfall 0.32 in
Snow Depth Not available.
UV 2.0 out of 12
Pollen .80 out of 12
Air Quality Not available.
Flu Activity Not available.
METAR KCNK 051355Z AUTO 12005KT 6SM BR OVC003 21/20 A2996 RMK AO2 RAE07 SLP134 P0000 T02060200

More Conditions Fewer Conditions

10-Day Weather Forecast

×

Almanac

Astronomy

Aug. 05, 2015 Rise Set
Actual Time
Civil Twilight
Nautical Twilight
Astronomical Twilight
Moon
Length of Visible Light
Length of Day
Tomorrow will be .
, % of the Moon is Illuminated

Today's Extremes

State Highs State Lows

Community

WunderPhotos

Upload Photos

1,844,188 photos uploaded!

WunderBlogs® & News

Nearby

Air Quality

  Air Quality AQ Index Pollutant
Not available.

Snow Depth

Station Depth Elevation

Earthquake Activity

City Distance Mag. Time & Date
Minimum magnitude displayed is 2.5.

Coastal Water Temperatures

Place Temperature

Stations

Nearby Weather Stations

Station Location Temp. Windchill Dew Point Humidity Wind Precip. Elev Updated Type